sensor_id;sensor_type;location;lat;lon;timestamp;P1;durP1;ratioP1;P2;durP2;ratioP2
48805;SDS011;34625;47.176;27.548;2023-10-08T00:01:08;6.03;;;2.10;;
48805;SDS011;34625;47.176;27.548;2023-10-08T00:03:38;4.65;;;2.05;;
48805;SDS011;34625;47.176;27.548;2023-10-08T00:06:06;2.30;;;1.20;;
48805;SDS011;34625;47.176;27.548;2023-10-08T00:08:32;4.18;;;1.70;;
48805;SDS011;34625;47.176;27.548;2023-10-08T00:10:59;7.20;;;2.00;;
48805;SDS011;34625;47.176;27.548;2023-10-08T00:13:31;4.88;;;1.92;;
48805;SDS011;34625;47.176;27.548;2023-10-08T00:16:11;7.97;;;2.05;;
48805;SDS011;34625;47.176;27.548;2023-10-08T00:18:42;2.53;;;1.42;;
48805;SDS011;34625;47.176;27.548;2023-10-08T00:21:19;2.75;;;1.63;;
48805;SDS011;34625;47.176;27.548;2023-10-08T00:23:53;3.40;;;1.92;;
48805;SDS011;34625;47.176;27.548;2023-10-08T00:26:25;4.13;;;1.98;;
48805;SDS011;34625;47.176;27.548;2023-10-08T00:29:00;3.53;;;1.88;;
48805;SDS011;34625;47.176;27.548;2023-10-08T00:31:54;2.30;;;1.40;;
48805;SDS011;34625;47.176;27.548;2023-10-08T00:34:22;2.58;;;1.20;;
48805;SDS011;34625;47.176;27.548;2023-10-08T00:36:52;1.92;;;1.60;;
48805;SDS011;34625;47.176;27.548;2023-10-08T00:39:18;4.53;;;1.90;;
48805;SDS011;34625;47.176;27.548;2023-10-08T00:41:59;2.75;;;1.60;;
48805;SDS011;34625;47.176;27.548;2023-10-08T00:44:25;1.95;;;1.20;;
48805;SDS011;34625;47.176;27.548;2023-10-08T00:47:01;3.15;;;1.60;;
48805;SDS011;34625;47.176;27.548;2023-10-08T00:49:29;1.88;;;1.35;;
48805;SDS011;34625;47.176;27.548;2023-10-08T00:52:04;1.42;;;1.27;;
48805;SDS011;34625;47.176;27.548;2023-10-08T00:54:33;1.05;;;0.95;;
48805;SDS011;34625;47.176;27.548;2023-10-08T00:57:13;1.33;;;1.13;;
48805;SDS011;34625;47.176;27.548;2023-10-08T00:59:45;1.92;;;1.00;;
48805;SDS011;34625;47.176;27.548;2023-10-08T01:04:55;1.70;;;1.30;;
48805;SDS011;34625;47.176;27.548;2023-10-08T01:07:22;2.17;;;1.10;;
48805;SDS011;34625;47.176;27.548;2023-10-08T01:09:49;1.65;;;1.15;;
48805;SDS011;34625;47.176;27.548;2023-10-08T01:12:22;2.67;;;1.63;;
48805;SDS011;34625;47.176;27.548;2023-10-08T01:14:59;2.13;;;1.20;;
48805;SDS011;34625;47.176;27.548;2023-10-08T01:17:44;3.55;;;2.00;;
48805;SDS011;34625;47.176;27.548;2023-10-08T01:20:32;2.42;;;1.70;;
48805;SDS011;34625;47.176;27.548;2023-10-08T01:23:05;3.65;;;2.17;;
48805;SDS011;34625;47.176;27.548;2023-10-08T01:25:42;2.67;;;1.70;;
48805;SDS011;34625;47.176;27.548;2023-10-08T01:28:16;4.88;;;1.95;;
48805;SDS011;34625;47.176;27.548;2023-10-08T01:30:53;4.50;;;1.75;;
48805;SDS011;34625;47.176;27.548;2023-10-08T01:33:23;6.13;;;2.63;;
48805;SDS011;34625;47.176;27.548;2023-10-08T01:35:53;3.40;;;1.63;;
48805;SDS011;34625;47.176;27.548;2023-10-08T01:38:20;3.80;;;1.60;;
48805;SDS011;34625;47.176;27.548;2023-10-08T01:40:49;4.75;;;2.28;;
48805;SDS011;34625;47.176;27.548;2023-10-08T01:43:16;3.97;;;1.48;;
48805;SDS011;34625;47.176;27.548;2023-10-08T01:45:43;2.65;;;1.67;;
48805;SDS011;34625;47.176;27.548;2023-10-08T01:48:14;5.07;;;1.80;;
48805;SDS011;34625;47.176;27.548;2023-10-08T01:50:53;2.65;;;1.95;;
48805;SDS011;34625;47.176;27.548;2023-10-08T01:53:21;5.15;;;1.73;;
48805;SDS011;34625;47.176;27.548;2023-10-08T01:55:47;2.22;;;1.55;;
48805;SDS011;34625;47.176;27.548;2023-10-08T01:58:17;2.03;;;1.80;;
48805;SDS011;34625;47.176;27.548;2023-10-08T02:00:44;1.45;;;1.35;;
48805;SDS011;34625;47.176;27.548;2023-10-08T02:03:13;3.47;;;1.73;;
48805;SDS011;34625;47.176;27.548;2023-10-08T02:05:43;3.72;;;1.70;;
48805;SDS011;34625;47.176;27.548;2023-10-08T02:08:10;6.55;;;1.77;;
48805;SDS011;34625;47.176;27.548;2023-10-08T02:10:38;2.67;;;1.70;;
48805;SDS011;34625;47.176;27.548;2023-10-08T02:13:06;1.67;;;1.25;;
48805;SDS011;34625;47.176;27.548;2023-10-08T02:15:34;0.82;;;0.77;;
48805;SDS011;34625;47.176;27.548;2023-10-08T02:18:02;0.85;;;0.80;;
48805;SDS011;34625;47.176;27.548;2023-10-08T02:20:29;0.95;;;0.93;;
48805;SDS011;34625;47.176;27.548;2023-10-08T02:22:55;0.63;;;0.63;;
48805;SDS011;34625;47.176;27.548;2023-10-08T02:25:21;0.70;;;0.70;;
48805;SDS011;34625;47.176;27.548;2023-10-08T02:27:48;2.00;;;1.40;;
48805;SDS011;34625;47.176;27.548;2023-10-08T02:30:15;1.55;;;1.35;;
48805;SDS011;34625;47.176;27.548;2023-10-08T02:32:43;2.28;;;1.67;;
48805;SDS011;34625;47.176;27.548;2023-10-08T02:35:10;1.23;;;0.82;;
48805;SDS011;34625;47.176;27.548;2023-10-08T02:37:39;0.70;;;0.70;;
48805;SDS011;34625;47.176;27.548;2023-10-08T02:40:06;1.13;;;0.85;;
48805;SDS011;34625;47.176;27.548;2023-10-08T02:42:51;0.50;;;0.50;;
48805;SDS011;34625;47.176;27.548;2023-10-08T02:45:26;0.60;;;0.60;;
48805;SDS011;34625;47.176;27.548;2023-10-08T02:47:53;0.55;;;0.55;;
48805;SDS011;34625;47.176;27.548;2023-10-08T02:50:21;0.75;;;0.73;;
48805;SDS011;34625;47.176;27.548;2023-10-08T02:52:50;2.95;;;0.98;;
48805;SDS011;34625;47.176;27.548;2023-10-08T02:55:17;0.63;;;0.63;;
48805;SDS011;34625;47.176;27.548;2023-10-08T02:58:01;4.95;;;1.38;;
48805;SDS011;34625;47.176;27.548;2023-10-08T03:00:30;1.10;;;0.75;;
48805;SDS011;34625;47.176;27.548;2023-10-08T03:03:00;4.75;;;1.67;;
48805;SDS011;34625;47.176;27.548;2023-10-08T03:05:27;4.57;;;2.10;;
48805;SDS011;34625;47.176;27.548;2023-10-08T03:08:02;2.38;;;1.77;;
48805;SDS011;34625;47.176;27.548;2023-10-08T03:10:37;1.65;;;1.25;;
48805;SDS011;34625;47.176;27.548;2023-10-08T03:13:04;3.13;;;1.65;;
48805;SDS011;34625;47.176;27.548;2023-10-08T03:15:31;1.17;;;1.08;;
48805;SDS011;34625;47.176;27.548;2023-10-08T03:18:15;0.75;;;0.75;;
48805;SDS011;34625;47.176;27.548;2023-10-08T03:20:41;0.85;;;0.85;;
48805;SDS011;34625;47.176;27.548;2023-10-08T03:23:12;0.70;;;0.70;;
48805;SDS011;34625;47.176;27.548;2023-10-08T03:25:54;0.70;;;0.70;;
48805;SDS011;34625;47.176;27.548;2023-10-08T03:28:44;0.70;;;0.70;;
48805;SDS011;34625;47.176;27.548;2023-10-08T03:31:10;0.50;;;0.50;;
48805;SDS011;34625;47.176;27.548;2023-10-08T03:33:42;0.98;;;0.70;;
48805;SDS011;34625;47.176;27.548;2023-10-08T03:36:14;0.57;;;0.57;;
48805;SDS011;34625;47.176;27.548;2023-10-08T03:38:46;0.95;;;0.85;;
48805;SDS011;34625;47.176;27.548;2023-10-08T03:41:25;0.90;;;0.90;;
48805;SDS011;34625;47.176;27.548;2023-10-08T03:44:05;3.15;;;2.00;;
48805;SDS011;34625;47.176;27.548;2023-10-08T03:46:38;7.13;;;2.03;;
48805;SDS011;34625;47.176;27.548;2023-10-08T03:49:12;11.00;;;2.58;;
48805;SDS011;34625;47.176;27.548;2023-10-08T03:51:47;4.57;;;2.20;;
48805;SDS011;34625;47.176;27.548;2023-10-08T03:54:17;3.15;;;1.55;;
48805;SDS011;34625;47.176;27.548;2023-10-08T03:56:44;4.10;;;2.40;;
48805;SDS011;34625;47.176;27.548;2023-10-08T03:59:14;3.88;;;2.20;;
48805;SDS011;34625;47.176;27.548;2023-10-08T04:02:05;2.88;;;1.73;;
48805;SDS011;34625;47.176;27.548;2023-10-08T04:04:49;5.53;;;2.08;;
48805;SDS011;34625;47.176;27.548;2023-10-08T04:07:23;5.93;;;2.45;;
48805;SDS011;34625;47.176;27.548;2023-10-08T04:10:10;7.05;;;2.40;;
48805;SDS011;34625;47.176;27.548;2023-10-08T04:12:36;5.35;;;2.58;;
48805;SDS011;34625;47.176;27.548;2023-10-08T04:15:07;7.18;;;2.78;;
48805;SDS011;34625;47.176;27.548;2023-10-08T04:17:34;2.40;;;1.60;;
48805;SDS011;34625;47.176;27.548;2023-10-08T04:20:10;5.57;;;1.85;;
48805;SDS011;34625;47.176;27.548;2023-10-08T04:22:55;3.13;;;1.92;;
48805;SDS011;34625;47.176;27.548;2023-10-08T04:25:21;3.55;;;1.17;;
48805;SDS011;34625;47.176;27.548;2023-10-08T04:27:47;3.00;;;1.63;;
48805;SDS011;34625;47.176;27.548;2023-10-08T04:30:15;3.90;;;1.77;;
48805;SDS011;34625;47.176;27.548;2023-10-08T04:32:41;2.60;;;1.65;;
48805;SDS011;34625;47.176;27.548;2023-10-08T04:35:08;0.73;;;0.73;;
48805;SDS011;34625;47.176;27.548;2023-10-08T04:37:40;0.65;;;0.60;;
48805;SDS011;34625;47.176;27.548;2023-10-08T04:40:06;0.50;;;0.50;;
48805;SDS011;34625;47.176;27.548;2023-10-08T04:42:41;1.67;;;1.17;;
48805;SDS011;34625;47.176;27.548;2023-10-08T04:45:10;0.52;;;0.52;;
48805;SDS011;34625;47.176;27.548;2023-10-08T04:47:39;2.45;;;0.98;;
48805;SDS011;34625;47.176;27.548;2023-10-08T04:50:10;0.65;;;0.65;;
48805;SDS011;34625;47.176;27.548;2023-10-08T04:52:40;0.55;;;0.45;;
48805;SDS011;34625;47.176;27.548;2023-10-08T04:55:24;0.80;;;0.57;;
48805;SDS011;34625;47.176;27.548;2023-10-08T04:57:55;0.55;;;0.55;;
48805;SDS011;34625;47.176;27.548;2023-10-08T05:00:21;3.05;;;1.73;;
48805;SDS011;34625;47.176;27.548;2023-10-08T05:03:07;3.33;;;1.70;;
48805;SDS011;34625;47.176;27.548;2023-10-08T05:05:45;2.50;;;1.58;;
48805;SDS011;34625;47.176;27.548;2023-10-08T05:08:34;0.40;;;0.40;;
48805;SDS011;34625;47.176;27.548;2023-10-08T05:11:19;0.40;;;0.40;;
48805;SDS011;34625;47.176;27.548;2023-10-08T05:14:02;1.48;;;1.08;;
48805;SDS011;34625;47.176;27.548;2023-10-08T05:16:34;0.50;;;0.50;;
48805;SDS011;34625;47.176;27.548;2023-10-08T05:19:10;0.40;;;0.40;;
48805;SDS011;34625;47.176;27.548;2023-10-08T05:21:55;0.47;;;0.40;;
48805;SDS011;34625;47.176;27.548;2023-10-08T05:24:43;0.80;;;0.70;;
48805;SDS011;34625;47.176;27.548;2023-10-08T05:27:37;0.68;;;0.63;;
48805;SDS011;34625;47.176;27.548;2023-10-08T05:30:13;0.47;;;0.47;;
48805;SDS011;34625;47.176;27.548;2023-10-08T05:32:54;1.25;;;0.80;;
48805;SDS011;34625;47.176;27.548;2023-10-08T05:35:33;0.50;;;0.50;;
48805;SDS011;34625;47.176;27.548;2023-10-08T05:38:07;1.40;;;1.05;;
48805;SDS011;34625;47.176;27.548;2023-10-08T05:41:03;0.40;;;0.40;;
48805;SDS011;34625;47.176;27.548;2023-10-08T05:43:32;0.85;;;0.70;;
48805;SDS011;34625;47.176;27.548;2023-10-08T05:48:56;0.73;;;0.55;;
48805;SDS011;34625;47.176;27.548;2023-10-08T05:51:32;0.40;;;0.40;;
48805;SDS011;34625;47.176;27.548;2023-10-08T05:54:12;0.50;;;0.50;;
48805;SDS011;34625;47.176;27.548;2023-10-08T05:59:41;0.55;;;0.50;;
48805;SDS011;34625;47.176;27.548;2023-10-08T06:02:41;0.52;;;0.52;;
48805;SDS011;34625;47.176;27.548;2023-10-08T06:05:11;0.73;;;0.55;;
48805;SDS011;34625;47.176;27.548;2023-10-08T06:10:31;0.50;;;0.50;;
48805;SDS011;34625;47.176;27.548;2023-10-08T06:13:08;0.40;;;0.40;;
48805;SDS011;34625;47.176;27.548;2023-10-08T06:18:16;0.40;;;0.40;;
48805;SDS011;34625;47.176;27.548;2023-10-08T06:20:54;0.50;;;0.50;;
48805;SDS011;34625;47.176;27.548;2023-10-08T06:23:24;1.08;;;0.98;;
48805;SDS011;34625;47.176;27.548;2023-10-08T06:25:52;0.75;;;0.75;;
48805;SDS011;34625;47.176;27.548;2023-10-08T06:28:40;1.48;;;0.80;;
48805;SDS011;34625;47.176;27.548;2023-10-08T06:31:07;4.55;;;0.75;;
48805;SDS011;34625;47.176;27.548;2023-10-08T06:33:37;13.27;;;2.75;;
48805;SDS011;34625;47.176;27.548;2023-10-08T06:36:06;2.55;;;1.23;;
48805;SDS011;34625;47.176;27.548;2023-10-08T06:38:39;1.83;;;1.33;;
48805;SDS011;34625;47.176;27.548;2023-10-08T06:41:07;1.58;;;1.02;;
48805;SDS011;34625;47.176;27.548;2023-10-08T06:43:44;3.30;;;1.67;;
48805;SDS011;34625;47.176;27.548;2023-10-08T06:46:18;2.00;;;1.17;;
48805;SDS011;34625;47.176;27.548;2023-10-08T06:48:46;1.60;;;1.00;;
48805;SDS011;34625;47.176;27.548;2023-10-08T06:51:14;2.78;;;1.17;;
48805;SDS011;34625;47.176;27.548;2023-10-08T06:53:43;2.72;;;1.65;;
48805;SDS011;34625;47.176;27.548;2023-10-08T06:56:11;1.63;;;1.23;;
48805;SDS011;34625;47.176;27.548;2023-10-08T06:58:38;1.20;;;1.10;;
48805;SDS011;34625;47.176;27.548;2023-10-08T07:01:07;1.92;;;1.73;;
48805;SDS011;34625;47.176;27.548;2023-10-08T07:03:38;4.97;;;1.60;;
48805;SDS011;34625;47.176;27.548;2023-10-08T07:06:04;5.68;;;2.00;;
48805;SDS011;34625;47.176;27.548;2023-10-08T07:08:42;1.85;;;1.50;;
48805;SDS011;34625;47.176;27.548;2023-10-08T07:11:12;2.15;;;1.55;;
48805;SDS011;34625;47.176;27.548;2023-10-08T07:13:39;4.70;;;1.60;;
48805;SDS011;34625;47.176;27.548;2023-10-08T07:16:07;1.45;;;0.98;;
48805;SDS011;34625;47.176;27.548;2023-10-08T07:18:39;1.73;;;1.30;;
48805;SDS011;34625;47.176;27.548;2023-10-08T07:21:07;4.30;;;1.90;;
48805;SDS011;34625;47.176;27.548;2023-10-08T07:23:39;2.83;;;1.17;;
48805;SDS011;34625;47.176;27.548;2023-10-08T07:26:25;1.10;;;0.90;;
48805;SDS011;34625;47.176;27.548;2023-10-08T07:28:51;2.67;;;1.00;;
48805;SDS011;34625;47.176;27.548;2023-10-08T07:31:22;3.28;;;1.45;;
48805;SDS011;34625;47.176;27.548;2023-10-08T07:33:51;2.40;;;0.90;;
48805;SDS011;34625;47.176;27.548;2023-10-08T07:36:22;0.80;;;0.70;;
48805;SDS011;34625;47.176;27.548;2023-10-08T07:38:51;3.40;;;1.17;;
48805;SDS011;34625;47.176;27.548;2023-10-08T07:41:17;1.60;;;1.40;;
48805;SDS011;34625;47.176;27.548;2023-10-08T07:43:45;1.73;;;1.35;;
48805;SDS011;34625;47.176;27.548;2023-10-08T07:46:27;2.33;;;1.40;;
48805;SDS011;34625;47.176;27.548;2023-10-08T07:48:53;1.08;;;0.93;;
48805;SDS011;34625;47.176;27.548;2023-10-08T07:51:20;1.08;;;0.82;;
48805;SDS011;34625;47.176;27.548;2023-10-08T07:53:50;2.38;;;1.35;;
48805;SDS011;34625;47.176;27.548;2023-10-08T07:56:24;1.58;;;0.93;;
48805;SDS011;34625;47.176;27.548;2023-10-08T07:58:51;0.50;;;0.50;;
48805;SDS011;34625;47.176;27.548;2023-10-08T08:01:21;0.95;;;0.88;;
48805;SDS011;34625;47.176;27.548;2023-10-08T08:03:50;1.40;;;1.05;;
48805;SDS011;34625;47.176;27.548;2023-10-08T08:06:16;1.75;;;0.90;;
48805;SDS011;34625;47.176;27.548;2023-10-08T08:08:42;0.73;;;0.60;;
48805;SDS011;34625;47.176;27.548;2023-10-08T08:11:09;0.40;;;0.40;;
48805;SDS011;34625;47.176;27.548;2023-10-08T08:13:42;0.80;;;0.75;;
48805;SDS011;34625;47.176;27.548;2023-10-08T08:16:11;0.55;;;0.55;;
48805;SDS011;34625;47.176;27.548;2023-10-08T08:18:46;0.80;;;0.80;;
48805;SDS011;34625;47.176;27.548;2023-10-08T08:21:15;1.52;;;1.20;;
48805;SDS011;34625;47.176;27.548;2023-10-08T08:23:42;2.03;;;0.93;;
48805;SDS011;34625;47.176;27.548;2023-10-08T08:26:16;1.48;;;1.05;;
48805;SDS011;34625;47.176;27.548;2023-10-08T08:28:59;1.05;;;0.85;;
48805;SDS011;34625;47.176;27.548;2023-10-08T08:31:27;0.52;;;0.40;;
48805;SDS011;34625;47.176;27.548;2023-10-08T08:33:57;1.38;;;0.73;;
48805;SDS011;34625;47.176;27.548;2023-10-08T08:36:45;2.10;;;0.68;;
48805;SDS011;34625;47.176;27.548;2023-10-08T08:39:15;0.50;;;0.50;;
48805;SDS011;34625;47.176;27.548;2023-10-08T08:42:03;1.13;;;0.70;;
48805;SDS011;34625;47.176;27.548;2023-10-08T08:44:35;0.50;;;0.50;;
48805;SDS011;34625;47.176;27.548;2023-10-08T08:47:11;1.10;;;0.75;;
48805;SDS011;34625;47.176;27.548;2023-10-08T08:49:43;0.85;;;0.75;;
48805;SDS011;34625;47.176;27.548;2023-10-08T08:52:10;0.70;;;0.70;;
48805;SDS011;34625;47.176;27.548;2023-10-08T08:54:38;0.80;;;0.77;;
48805;SDS011;34625;47.176;27.548;2023-10-08T08:57:04;0.80;;;0.80;;
48805;SDS011;34625;47.176;27.548;2023-10-08T08:59:40;0.93;;;0.77;;
48805;SDS011;34625;47.176;27.548;2023-10-08T09:02:20;0.50;;;0.50;;
48805;SDS011;34625;47.176;27.548;2023-10-08T09:04:48;0.95;;;0.70;;
48805;SDS011;34625;47.176;27.548;2023-10-08T09:07:14;6.57;;;1.55;;
48805;SDS011;34625;47.176;27.548;2023-10-08T09:09:46;2.23;;;1.20;;
48805;SDS011;34625;47.176;27.548;2023-10-08T09:12:16;5.35;;;1.48;;
48805;SDS011;34625;47.176;27.548;2023-10-08T09:14:42;2.47;;;1.17;;
48805;SDS011;34625;47.176;27.548;2023-10-08T09:17:10;1.38;;;0.90;;
48805;SDS011;34625;47.176;27.548;2023-10-08T09:19:36;3.22;;;1.15;;
48805;SDS011;34625;47.176;27.548;2023-10-08T09:22:10;1.05;;;0.70;;
48805;SDS011;34625;47.176;27.548;2023-10-08T09:24:37;2.03;;;0.90;;
48805;SDS011;34625;47.176;27.548;2023-10-08T09:27:10;3.83;;;1.15;;
48805;SDS011;34625;47.176;27.548;2023-10-08T09:29:41;0.73;;;0.73;;
48805;SDS011;34625;47.176;27.548;2023-10-08T09:32:09;1.65;;;1.00;;
48805;SDS011;34625;47.176;27.548;2023-10-08T09:34:36;0.98;;;0.90;;
48805;SDS011;34625;47.176;27.548;2023-10-08T09:37:03;1.92;;;0.77;;
48805;SDS011;34625;47.176;27.548;2023-10-08T09:39:30;1.67;;;1.00;;
48805;SDS011;34625;47.176;27.548;2023-10-08T09:42:00;1.02;;;0.70;;
48805;SDS011;34625;47.176;27.548;2023-10-08T09:44:37;0.70;;;0.70;;
48805;SDS011;34625;47.176;27.548;2023-10-08T09:47:04;1.25;;;0.88;;
48805;SDS011;34625;47.176;27.548;2023-10-08T09:49:31;1.23;;;0.93;;
48805;SDS011;34625;47.176;27.548;2023-10-08T09:52:00;1.25;;;1.15;;
48805;SDS011;34625;47.176;27.548;2023-10-08T09:54:31;1.92;;;1.08;;
48805;SDS011;34625;47.176;27.548;2023-10-08T09:57:07;1.98;;;0.98;;
48805;SDS011;34625;47.176;27.548;2023-10-08T09:59:33;1.23;;;1.08;;
48805;SDS011;34625;47.176;27.548;2023-10-08T10:02:00;4.10;;;0.95;;
48805;SDS011;34625;47.176;27.548;2023-10-08T10:04:29;2.83;;;0.85;;
48805;SDS011;34625;47.176;27.548;2023-10-08T10:07:09;16.08;;;2.08;;
48805;SDS011;34625;47.176;27.548;2023-10-08T10:09:38;3.35;;;1.10;;
48805;SDS011;34625;47.176;27.548;2023-10-08T10:12:08;1.65;;;0.80;;
48805;SDS011;34625;47.176;27.548;2023-10-08T10:14:44;1.23;;;0.88;;
48805;SDS011;34625;47.176;27.548;2023-10-08T10:17:15;1.67;;;1.13;;
48805;SDS011;34625;47.176;27.548;2023-10-08T10:19:55;1.65;;;1.05;;
48805;SDS011;34625;47.176;27.548;2023-10-08T10:24:58;1.20;;;1.10;;
48805;SDS011;34625;47.176;27.548;2023-10-08T10:27:29;2.20;;;1.08;;
48805;SDS011;34625;47.176;27.548;2023-10-08T10:30:00;1.80;;;1.10;;
48805;SDS011;34625;47.176;27.548;2023-10-08T10:32:36;4.50;;;1.15;;
48805;SDS011;34625;47.176;27.548;2023-10-08T10:35:03;1.55;;;0.80;;
48805;SDS011;34625;47.176;27.548;2023-10-08T10:37:32;2.53;;;0.88;;
48805;SDS011;34625;47.176;27.548;2023-10-08T10:40:07;1.38;;;1.00;;
48805;SDS011;34625;47.176;27.548;2023-10-08T10:42:38;1.35;;;1.23;;
48805;SDS011;34625;47.176;27.548;2023-10-08T10:45:19;2.47;;;1.00;;
48805;SDS011;34625;47.176;27.548;2023-10-08T10:48:05;0.93;;;0.90;;
48805;SDS011;34625;47.176;27.548;2023-10-08T10:50:45;0.88;;;0.85;;
48805;SDS011;34625;47.176;27.548;2023-10-08T10:53:35;3.25;;;0.90;;
48805;SDS011;34625;47.176;27.548;2023-10-08T10:56:23;4.05;;;1.60;;
48805;SDS011;34625;47.176;27.548;2023-10-08T10:58:58;3.70;;;1.30;;
48805;SDS011;34625;47.176;27.548;2023-10-08T11:01:28;2.10;;;1.02;;
48805;SDS011;34625;47.176;27.548;2023-10-08T11:03:56;2.92;;;0.95;;
48805;SDS011;34625;47.176;27.548;2023-10-08T11:06:25;3.45;;;0.95;;
48805;SDS011;34625;47.176;27.548;2023-10-08T11:08:52;3.25;;;1.15;;
48805;SDS011;34625;47.176;27.548;2023-10-08T11:11:25;1.05;;;0.95;;
48805;SDS011;34625;47.176;27.548;2023-10-08T11:13:58;2.72;;;1.10;;
48805;SDS011;34625;47.176;27.548;2023-10-08T11:16:28;3.47;;;1.00;;
48805;SDS011;34625;47.176;27.548;2023-10-08T11:18:56;2.88;;;1.33;;
48805;SDS011;34625;47.176;27.548;2023-10-08T11:21:26;2.63;;;0.77;;
48805;SDS011;34625;47.176;27.548;2023-10-08T11:23:57;2.80;;;1.65;;
48805;SDS011;34625;47.176;27.548;2023-10-08T11:26:24;1.50;;;1.13;;
48805;SDS011;34625;47.176;27.548;2023-10-08T11:28:58;1.90;;;1.10;;
48805;SDS011;34625;47.176;27.548;2023-10-08T11:31:26;1.90;;;1.25;;
48805;SDS011;34625;47.176;27.548;2023-10-08T11:33:58;1.15;;;1.05;;
48805;SDS011;34625;47.176;27.548;2023-10-08T11:36:35;1.88;;;0.88;;
48805;SDS011;34625;47.176;27.548;2023-10-08T11:39:09;0.82;;;0.80;;
48805;SDS011;34625;47.176;27.548;2023-10-08T11:41:38;1.58;;;1.00;;
48805;SDS011;34625;47.176;27.548;2023-10-08T11:44:16;1.88;;;1.10;;
48805;SDS011;34625;47.176;27.548;2023-10-08T11:46:45;3.63;;;1.20;;
48805;SDS011;34625;47.176;27.548;2023-10-08T11:49:17;1.00;;;0.90;;
48805;SDS011;34625;47.176;27.548;2023-10-08T11:51:44;1.85;;;0.80;;
48805;SDS011;34625;47.176;27.548;2023-10-08T11:54:14;1.70;;;0.90;;
48805;SDS011;34625;47.176;27.548;2023-10-08T11:56:40;1.45;;;0.90;;
48805;SDS011;34625;47.176;27.548;2023-10-08T11:59:06;1.10;;;0.77;;
48805;SDS011;34625;47.176;27.548;2023-10-08T12:01:37;2.25;;;1.00;;
48805;SDS011;34625;47.176;27.548;2023-10-08T12:04:07;1.35;;;0.95;;
48805;SDS011;34625;47.176;27.548;2023-10-08T12:06:42;1.23;;;1.00;;
48805;SDS011;34625;47.176;27.548;2023-10-08T12:09:17;3.03;;;0.80;;
48805;SDS011;34625;47.176;27.548;2023-10-08T12:11:47;1.85;;;0.98;;
48805;SDS011;34625;47.176;27.548;2023-10-08T12:14:14;0.95;;;0.85;;
48805;SDS011;34625;47.176;27.548;2023-10-08T12:16:40;1.52;;;1.42;;
48805;SDS011;34625;47.176;27.548;2023-10-08T12:19:07;0.98;;;0.80;;
48805;SDS011;34625;47.176;27.548;2023-10-08T12:21:43;1.65;;;1.00;;
48805;SDS011;34625;47.176;27.548;2023-10-08T12:24:13;1.45;;;0.80;;
48805;SDS011;34625;47.176;27.548;2023-10-08T12:26:40;2.80;;;1.20;;
48805;SDS011;34625;47.176;27.548;2023-10-08T12:29:12;1.58;;;0.82;;
48805;SDS011;34625;47.176;27.548;2023-10-08T12:31:45;4.07;;;1.23;;
48805;SDS011;34625;47.176;27.548;2023-10-08T12:34:14;1.33;;;0.82;;
48805;SDS011;34625;47.176;27.548;2023-10-08T12:36:40;2.28;;;0.90;;
48805;SDS011;34625;47.176;27.548;2023-10-08T12:39:07;2.15;;;0.98;;
48805;SDS011;34625;47.176;27.548;2023-10-08T12:41:43;1.52;;;0.70;;
48805;SDS011;34625;47.176;27.548;2023-10-08T12:44:10;2.38;;;0.80;;
48805;SDS011;34625;47.176;27.548;2023-10-08T12:46:37;2.40;;;0.80;;
48805;SDS011;34625;47.176;27.548;2023-10-08T12:49:03;1.38;;;0.93;;
48805;SDS011;34625;47.176;27.548;2023-10-08T12:51:29;3.70;;;0.90;;
48805;SDS011;34625;47.176;27.548;2023-10-08T12:53:59;2.22;;;0.90;;
48805;SDS011;34625;47.176;27.548;2023-10-08T12:56:29;1.77;;;1.08;;
48805;SDS011;34625;47.176;27.548;2023-10-08T12:59:05;1.25;;;1.00;;
48805;SDS011;34625;47.176;27.548;2023-10-08T13:01:37;2.70;;;1.08;;
48805;SDS011;34625;47.176;27.548;2023-10-08T13:04:06;2.30;;;0.95;;
48805;SDS011;34625;47.176;27.548;2023-10-08T13:06:33;1.15;;;0.90;;
48805;SDS011;34625;47.176;27.548;2023-10-08T13:09:02;1.42;;;1.05;;
48805;SDS011;34625;47.176;27.548;2023-10-08T13:11:35;0.60;;;0.60;;
48805;SDS011;34625;47.176;27.548;2023-10-08T13:14:04;0.80;;;0.80;;
48805;SDS011;34625;47.176;27.548;2023-10-08T13:16:30;1.67;;;0.93;;
48805;SDS011;34625;47.176;27.548;2023-10-08T13:18:57;0.90;;;0.90;;
48805;SDS011;34625;47.176;27.548;2023-10-08T13:21:24;2.03;;;0.77;;
48805;SDS011;34625;47.176;27.548;2023-10-08T13:23:51;2.17;;;1.45;;
48805;SDS011;34625;47.176;27.548;2023-10-08T13:26:17;1.20;;;0.80;;
48805;SDS011;34625;47.176;27.548;2023-10-08T13:28:48;1.40;;;1.30;;
48805;SDS011;34625;47.176;27.548;2023-10-08T13:31:14;1.73;;;1.20;;
48805;SDS011;34625;47.176;27.548;2023-10-08T13:33:42;1.73;;;1.35;;
48805;SDS011;34625;47.176;27.548;2023-10-08T13:36:10;1.60;;;1.17;;
48805;SDS011;34625;47.176;27.548;2023-10-08T13:38:38;9.40;;;2.10;;
48805;SDS011;34625;47.176;27.548;2023-10-08T13:41:08;2.55;;;1.90;;
48805;SDS011;34625;47.176;27.548;2023-10-08T13:43:44;2.80;;;1.57;;
48805;SDS011;34625;47.176;27.548;2023-10-08T13:46:12;1.63;;;1.25;;
48805;SDS011;34625;47.176;27.548;2023-10-08T13:48:43;2.63;;;1.35;;
48805;SDS011;34625;47.176;27.548;2023-10-08T13:51:16;1.55;;;1.42;;
48805;SDS011;34625;47.176;27.548;2023-10-08T13:53:54;2.80;;;1.10;;
48805;SDS011;34625;47.176;27.548;2023-10-08T13:56:31;1.02;;;0.93;;
48805;SDS011;34625;47.176;27.548;2023-10-08T13:58:59;1.55;;;0.80;;
48805;SDS011;34625;47.176;27.548;2023-10-08T14:01:37;2.28;;;0.70;;
48805;SDS011;34625;47.176;27.548;2023-10-08T14:04:06;3.08;;;0.90;;
48805;SDS011;34625;47.176;27.548;2023-10-08T14:06:36;1.65;;;1.08;;
48805;SDS011;34625;47.176;27.548;2023-10-08T14:09:06;1.00;;;0.90;;
48805;SDS011;34625;47.176;27.548;2023-10-08T14:11:37;1.63;;;1.15;;
48805;SDS011;34625;47.176;27.548;2023-10-08T14:14:04;1.50;;;1.10;;
48805;SDS011;34625;47.176;27.548;2023-10-08T14:16:42;1.45;;;1.27;;
48805;SDS011;34625;47.176;27.548;2023-10-08T14:19:11;1.05;;;0.95;;
48805;SDS011;34625;47.176;27.548;2023-10-08T14:21:39;4.20;;;1.10;;
48805;SDS011;34625;47.176;27.548;2023-10-08T14:24:28;3.30;;;1.40;;
48805;SDS011;34625;47.176;27.548;2023-10-08T14:26:58;5.78;;;1.50;;
48805;SDS011;34625;47.176;27.548;2023-10-08T14:29:36;2.95;;;1.20;;
48805;SDS011;34625;47.176;27.548;2023-10-08T14:32:15;1.20;;;1.00;;
48805;SDS011;34625;47.176;27.548;2023-10-08T14:34:41;3.53;;;0.90;;
48805;SDS011;34625;47.176;27.548;2023-10-08T14:37:13;2.28;;;1.27;;
48805;SDS011;34625;47.176;27.548;2023-10-08T14:39:58;2.00;;;1.00;;
48805;SDS011;34625;47.176;27.548;2023-10-08T14:42:42;1.13;;;0.90;;
48805;SDS011;34625;47.176;27.548;2023-10-08T14:45:27;2.15;;;1.35;;
48805;SDS011;34625;47.176;27.548;2023-10-08T14:47:57;0.70;;;0.70;;
48805;SDS011;34625;47.176;27.548;2023-10-08T14:50:23;0.82;;;0.73;;
48805;SDS011;34625;47.176;27.548;2023-10-08T14:52:53;3.28;;;1.25;;
48805;SDS011;34625;47.176;27.548;2023-10-08T14:55:20;1.95;;;1.17;;
48805;SDS011;34625;47.176;27.548;2023-10-08T14:57:48;1.92;;;1.00;;
48805;SDS011;34625;47.176;27.548;2023-10-08T15:00:18;1.17;;;0.80;;
48805;SDS011;34625;47.176;27.548;2023-10-08T15:02:52;1.52;;;0.88;;
48805;SDS011;34625;47.176;27.548;2023-10-08T15:05:22;1.27;;;0.70;;
48805;SDS011;34625;47.176;27.548;2023-10-08T15:07:49;1.90;;;0.90;;
48805;SDS011;34625;47.176;27.548;2023-10-08T15:10:16;1.60;;;1.13;;
48805;SDS011;34625;47.176;27.548;2023-10-08T15:12:43;1.10;;;0.73;;
48805;SDS011;34625;47.176;27.548;2023-10-08T15:15:09;2.40;;;0.93;;
48805;SDS011;34625;47.176;27.548;2023-10-08T15:17:44;0.68;;;0.50;;